Time,TemperatureF,DewpointF,PressureIn,WindDirection,WindDirectionDegrees,WindSpeedMPH,WindSpeedGustMPH,Humidity,HourlyPrecipIn,Conditions,Clouds,dailyrainin,SoftwareType,DateUTC
2013-02-11 00:13:00,14.6,11.0,30.34,WSW,254,0.0,0.0,86,0.00,,,0.00,weatherlink.com 1.10,2013-02-11 05:13:00,
2013-02-11 00:29:00,14.4,11.0,30.34,WSW,254,0.0,0.0,87,0.00,,,0.00,weatherlink.com 1.10,2013-02-11 05:29:00,
2013-02-11 00:44:00,14.8,11.0,30.33,WSW,257,0.0,0.0,86,0.00,,,0.00,weatherlink.com 1.10,2013-02-11 05:44:00,
2013-02-11 00:59:00,14.9,12.0,30.32,WSW,256,0.0,0.0,86,0.00,,,0.00,weatherlink.com 1.10,2013-02-11 05:59:00,
2013-02-11 01:14:00,14.9,12.0,30.32,WSW,256,0.0,0.0,86,0.00,,,0.00,weatherlink.com 1.10,2013-02-11 06:14:00,
2013-02-11 01:29:00,15.2,12.0,30.32,WSW,254,0.0,0.0,86,0.00,,,0.00,weatherlink.com 1.10,2013-02-11 06:29:00,
2013-02-11 01:44:00,15.2,12.0,30.30,WSW,256,0.0,0.0,86,0.00,,,0.00,weatherlink.com 1.10,2013-02-11 06:44:00,
2013-02-11 01:59:00,15.3,12.0,30.30,WSW,256,0.0,1.0,86,0.00,,,0.00,weatherlink.com 1.10,2013-02-11 06:59:00,
2013-02-11 02:14:00,15.6,12.0,30.29,WSW,254,0.0,0.0,86,0.00,,,0.00,weatherlink.com 1.10,2013-02-11 07:14:00,
2013-02-11 02:29:00,15.9,13.0,30.28,WSW,256,0.0,0.0,86,0.00,,,0.00,weatherlink.com 1.10,2013-02-11 07:29:00,
2013-02-11 02:44:00,16.2,13.0,30.28,WSW,254,0.0,0.0,86,0.00,,,0.00,weatherlink.com 1.10,2013-02-11 07:44:00,
2013-02-11 02:59:00,16.6,13.0,30.28,WSW,254,0.0,0.0,86,0.00,,,0.00,weatherlink.com 1.10,2013-02-11 07:59:00,
2013-02-11 03:14:00,17.1,13.0,30.27,WSW,254,0.0,0.0,85,0.00,,,0.00,weatherlink.com 1.10,2013-02-11 08:14:00,
2013-02-11 03:29:00,17.5,14.0,30.27,WSW,256,0.0,0.0,85,0.00,,,0.00,weatherlink.com 1.10,2013-02-11 08:29:00,
2013-02-11 03:44:00,17.9,14.0,30.26,WSW,256,0.0,0.0,85,0.00,,,0.00,weatherlink.com 1.10,2013-02-11 08:44:00,
2013-02-11 03:59:00,18.4,14.0,30.26,WSW,257,0.0,0.0,84,0.00,,,0.00,weatherlink.com 1.10,2013-02-11 08:59:00,
2013-02-11 04:14:00,18.8,15.0,30.26,WSW,256,0.0,0.0,84,0.00,,,0.00,weatherlink.com 1.10,2013-02-11 09:14:00,
2013-02-11 04:29:00,19.2,15.0,30.25,WSW,256,0.0,0.0,83,0.00,,,0.00,weatherlink.com 1.10,2013-02-11 09:29:00,
2013-02-11 04:44:00,19.5,15.0,30.24,WSW,257,0.0,0.0,83,0.00,,,0.00,weatherlink.com 1.10,2013-02-11 09:44:00,
2013-02-11 04:59:00,19.7,15.0,30.24,WSW,256,0.0,0.0,83,0.00,,,0.00,weatherlink.com 1.10,2013-02-11 09:59:00,
2013-02-11 05:14:00,19.8,15.0,30.24,WSW,257,0.0,0.0,83,0.00,,,0.00,weatherlink.com 1.10,2013-02-11 10:14:00,
2013-02-11 05:29:00,20.2,16.0,30.23,WSW,256,0.0,0.0,83,0.00,,,0.00,weatherlink.com 1.10,2013-02-11 10:29:00,
2013-02-11 05:44:00,20.5,16.0,30.23,WSW,256,0.0,0.0,83,0.00,,,0.00,weatherlink.com 1.10,2013-02-11 10:44:00,
2013-02-11 05:59:00,20.8,16.0,30.23,WSW,256,0.0,0.0,82,0.00,,,0.00,weatherlink.com 1.10,2013-02-11 10:59:00,
2013-02-11 06:14:00,21.2,17.0,30.21,WSW,256,0.0,0.0,83,0.00,,,0.00,weatherlink.com 1.10,2013-02-11 11:14:00,
2013-02-11 06:29:00,21.4,17.0,30.21,WSW,256,0.0,0.0,83,0.00,,,0.00,weatherlink.com 1.10,2013-02-11 11:29:00,
2013-02-11 06:44:00,21.7,17.0,30.21,WSW,256,0.0,0.0,82,0.00,,,0.00,weatherlink.com 1.10,2013-02-11 11:44:00,
2013-02-11 06:59:00,22.2,17.0,30.21,WSW,256,0.0,0.0,80,0.00,,,0.00,weatherlink.com 1.10,2013-02-11 11:59:00,
2013-02-11 07:14:00,22.8,17.0,30.21,WSW,256,0.0,0.0,79,0.00,,,0.00,weatherlink.com 1.10,2013-02-11 12:14:00,
2013-02-11 07:30:00,23.8,19.0,30.19,WSW,256,0.0,0.0,81,0.00,,,0.00,weatherlink.com 1.10,2013-02-11 12:30:00,
2013-02-11 07:45:00,24.8,20.0,30.18,WSW,256,0.0,0.0,81,0.00,,,0.00,weatherlink.com 1.10,2013-02-11 12:45:00,
2013-02-11 08:00:00,26.0,20.0,30.18,WSW,256,0.0,0.0,79,0.00,,,0.00,weatherlink.com 1.10,2013-02-11 13:00:00,
2013-02-11 08:15:00,27.0,20.0,30.17,WSW,256,0.0,0.0,76,0.00,,,0.00,weatherlink.com 1.10,2013-02-11 13:15:00,
2013-02-11 08:30:00,27.5,20.0,30.16,SE,144,0.0,1.0,74,0.00,,,0.00,weatherlink.com 1.10,2013-02-11 13:30:00,
2013-02-11 08:45:00,28.0,21.0,30.15,ESE,116,0.0,1.0,76,0.00,,,0.00,weatherlink.com 1.10,2013-02-11 13:45:00,
2013-02-11 09:00:00,28.5,23.0,30.13,East,91,0.0,2.0,80,0.00,,,0.00,weatherlink.com 1.10,2013-02-11 14:00:00,
2013-02-11 09:15:00,29.4,25.0,30.11,SSE,153,0.0,1.0,83,0.00,,,0.00,weatherlink.com 1.10,2013-02-11 14:15:00,
2013-02-11 09:30:00,30.9,27.0,30.10,SSE,159,0.0,9.0,86,0.00,,,0.00,weatherlink.com 1.10,2013-02-11 14:30:00,
2013-02-11 09:45:00,32.0,29.0,30.08,ESE,107,5.0,7.0,87,0.00,,,0.00,weatherlink.com 1.10,2013-02-11 14:45:00,
2013-02-11 10:00:00,32.8,30.0,30.07,ESE,102,1.0,9.0,88,0.00,,,0.00,weatherlink.com 1.10,2013-02-11 15:00:00,
2013-02-11 10:15:00,33.2,30.0,30.05,ESE,120,1.0,5.0,89,0.00,,,0.00,weatherlink.com 1.10,2013-02-11 15:15:00,
2013-02-11 10:30:00,34.0,31.0,30.04,ESE,120,0.0,3.0,90,0.00,,,0.00,weatherlink.com 1.10,2013-02-11 15:30:00,
2013-02-11 10:45:00,34.3,32.0,30.03,SE,141,0.0,3.0,90,0.00,,,0.00,weatherlink.com 1.10,2013-02-11 15:45:00,
2013-02-11 11:00:00,34.8,33.0,30.01,ESE,106,0.0,3.0,91,0.00,,,0.00,weatherlink.com 1.10,2013-02-11 16:00:00,
2013-02-11 11:15:00,35.2,33.0,29.99,ESE,116,1.0,3.0,91,0.00,,,0.00,weatherlink.com 1.10,2013-02-11 16:15:00,
2013-02-11 11:30:00,35.8,34.0,29.98,SW,232,0.0,4.0,92,0.02,,,0.02,weatherlink.com 1.10,2013-02-11 16:30:00,
2013-02-11 11:45:00,36.4,34.0,29.95,East,95,3.0,3.0,92,0.03,,,0.03,weatherlink.com 1.10,2013-02-11 16:45:00,
2013-02-11 12:01:00,36.9,35.0,29.93,SE,134,0.0,3.0,92,0.04,,,0.04,weatherlink.com 1.10,2013-02-11 17:01:00,
2013-02-11 12:16:00,37.2,35.0,29.91,ESE,105,0.0,3.0,92,0.04,,,0.05,weatherlink.com 1.10,2013-02-11 17:16:00,
2013-02-11 12:31:00,37.5,36.0,29.90,ESE,120,1.0,1.0,93,0.06,,,0.08,weatherlink.com 1.10,2013-02-11 17:31:00,
2013-02-11 12:46:00,37.7,36.0,29.89,SE,129,0.0,0.0,93,0.07,,,0.10,weatherlink.com 1.10,2013-02-11 17:46:00,
2013-02-11 13:01:00,37.9,36.0,29.87,SE,129,0.0,1.0,93,0.08,,,0.12,weatherlink.com 1.10,2013-02-11 18:01:00,
2013-02-11 13:16:00,38.1,36.0,29.85,ESE,102,0.0,1.0,92,0.08,,,0.13,weatherlink.com 1.10,2013-02-11 18:16:00,
2013-02-11 13:31:00,38.2,36.0,29.83,ESE,111,1.0,1.0,93,0.05,,,0.14,weatherlink.com 1.10,2013-02-11 18:31:00,
2013-02-11 13:46:00,38.5,37.0,29.82,SE,130,0.0,1.0,93,0.05,,,0.15,weatherlink.com 1.10,2013-02-11 18:46:00,
2013-02-11 14:01:00,39.8,39.0,29.80,East,96,3.0,3.0,95,0.04,,,0.16,weatherlink.com 1.10,2013-02-11 19:01:00,
2013-02-11 14:16:00,41.3,40.0,29.79,SSE,160,0.0,2.0,95,0.03,,,0.16,weatherlink.com 1.10,2013-02-11 19:16:00,
2013-02-11 14:31:00,42.5,41.0,29.77,SSW,206,0.0,4.0,95,0.02,,,0.16,weatherlink.com 1.10,2013-02-11 19:31:00,
2013-02-11 14:46:00,43.3,42.0,29.77,SSE,167,0.0,5.0,95,0.02,,,0.17,weatherlink.com 1.10,2013-02-11 19:46:00,
2013-02-11 15:01:00,43.4,42.0,29.77,SW,232,0.0,3.0,94,0.01,,,0.17,weatherlink.com 1.10,2013-02-11 20:01:00,
2013-02-11 15:16:00,43.7,42.0,29.76,SSW,202,0.0,2.0,94,0.04,,,0.20,weatherlink.com 1.10,2013-02-11 20:16:00,
2013-02-11 15:31:00,43.9,42.0,29.75,SW,234,0.0,1.0,94,0.07,,,0.23,weatherlink.com 1.10,2013-02-11 20:31:00,
2013-02-11 15:46:00,44.0,43.0,29.74,WSW,246,1.0,2.0,95,0.07,,,0.24,weatherlink.com 1.10,2013-02-11 20:46:00,
2013-02-11 16:01:00,44.0,43.0,29.73,WSW,249,0.0,2.0,95,0.09,,,0.26,weatherlink.com 1.10,2013-02-11 21:01:00,
2013-02-11 16:16:00,44.0,43.0,29.72,WSW,249,0.0,1.0,95,0.08,,,0.28,weatherlink.com 1.10,2013-02-11 21:16:00,
2013-02-11 16:31:00,42.3,41.0,29.71,WNW,296,0.0,2.0,93,0.05,,,0.28,weatherlink.com 1.10,2013-02-11 21:31:00,
2013-02-11 16:46:00,40.3,39.0,29.70,NW,306,0.0,2.0,93,0.04,,,0.28,weatherlink.com 1.10,2013-02-11 21:46:00,
2013-02-11 17:01:00,39.3,38.0,29.70,NW,306,0.0,1.0,94,0.02,,,0.28,weatherlink.com 1.10,2013-02-11 22:01:00,
2013-02-11 17:17:00,38.7,37.0,29.68,NW,306,0.0,0.0,94,0.00,,,0.28,weatherlink.com 1.10,2013-02-11 22:17:00,
2013-02-11 17:32:00,38.0,37.0,29.68,WNW,297,0.0,2.0,94,0.00,,,0.28,weatherlink.com 1.10,2013-02-11 22:32:00,
2013-02-11 17:47:00,37.9,36.0,29.68,NW,309,0.0,1.0,94,0.00,,,0.28,weatherlink.com 1.10,2013-02-11 22:47:00,
2013-02-11 18:02:00,37.5,36.0,29.68,West,280,0.0,1.0,95,0.01,,,0.29,weatherlink.com 1.10,2013-02-11 23:02:00,
2013-02-11 18:17:00,37.3,36.0,29.67,West,279,0.0,1.0,95,0.01,,,0.29,weatherlink.com 1.10,2013-02-11 23:17:00,
2013-02-11 18:32:00,36.9,36.0,29.67,WNW,291,0.0,1.0,95,0.01,,,0.29,weatherlink.com 1.10,2013-02-11 23:32:00,
2013-02-11 18:47:00,36.8,36.0,29.67,West,276,0.0,0.0,95,0.00,,,0.29,weatherlink.com 1.10,2013-02-11 23:47:00,
2013-02-11 19:02:00,36.7,35.0,29.66,West,276,0.0,0.0,95,0.00,,,0.29,weatherlink.com 1.10,2013-02-12 00:02:00,
2013-02-11 19:17:00,36.7,35.0,29.66,West,276,0.0,0.0,95,0.00,,,0.29,weatherlink.com 1.10,2013-02-12 00:17:00,
2013-02-11 19:32:00,36.7,35.0,29.66,West,276,0.0,0.0,95,0.00,,,0.29,weatherlink.com 1.10,2013-02-12 00:32:00,
2013-02-11 19:47:00,36.6,35.0,29.64,West,276,0.0,0.0,95,0.00,,,0.29,weatherlink.com 1.10,2013-02-12 00:47:00,
2013-02-11 20:02:00,36.5,35.0,29.63,West,276,0.0,0.0,95,0.00,,,0.29,weatherlink.com 1.10,2013-02-12 01:02:00,
2013-02-11 20:17:00,36.4,35.0,29.63,West,275,0.0,0.0,95,0.00,,,0.29,weatherlink.com 1.10,2013-02-12 01:17:00,
2013-02-11 20:32:00,36.3,35.0,29.62,West,275,0.0,0.0,95,0.00,,,0.29,weatherlink.com 1.10,2013-02-12 01:32:00,
2013-02-11 20:47:00,36.3,35.0,29.62,West,276,0.0,0.0,95,0.00,,,0.29,weatherlink.com 1.10,2013-02-12 01:47:00,
2013-02-11 21:02:00,36.3,35.0,29.61,West,276,0.0,0.0,95,0.00,,,0.29,weatherlink.com 1.10,2013-02-12 02:02:00,
2013-02-11 21:17:00,36.2,35.0,29.61,West,276,0.0,1.0,95,0.00,,,0.29,weatherlink.com 1.10,2013-02-12 02:17:00,
2013-02-11 21:32:00,36.4,35.0,29.61,West,276,0.0,0.0,95,0.00,,,0.29,weatherlink.com 1.10,2013-02-12 02:32:00,
2013-02-11 21:47:00,36.9,36.0,29.60,West,276,0.0,1.0,96,0.00,,,0.29,weatherlink.com 1.10,2013-02-12 02:47:00,
2013-02-11 22:02:00,37.2,36.0,29.61,West,276,1.0,1.0,96,0.00,,,0.29,weatherlink.com 1.10,2013-02-12 03:02:00,
2013-02-11 22:17:00,37.5,37.0,29.60,WNW,299,0.0,1.0,96,0.00,,,0.29,weatherlink.com 1.10,2013-02-12 03:17:00,
2013-02-11 22:32:00,37.5,36.0,29.60,NW,323,0.0,1.0,95,0.00,,,0.29,weatherlink.com 1.10,2013-02-12 03:32:00,
2013-02-11 22:47:00,37.7,37.0,29.59,NW,323,0.0,1.0,96,0.00,,,0.29,weatherlink.com 1.10,2013-02-12 03:47:00,
2013-02-11 23:02:00,37.4,36.0,29.59,NW,323,0.0,1.0,95,0.00,,,0.29,weatherlink.com 1.10,2013-02-12 04:02:00,
2013-02-11 23:17:00,37.7,37.0,29.60,NW,323,0.0,1.0,96,0.00,,,0.29,weatherlink.com 1.10,2013-02-12 04:17:00,
2013-02-11 23:32:00,37.3,36.0,29.60,NW,323,0.0,1.0,95,0.00,,,0.29,weatherlink.com 1.10,2013-02-12 04:32:00,
2013-02-11 23:47:00,37.1,36.0,29.61,West,267,0.0,1.0,95,0.00,,,0.29,weatherlink.com 1.10,2013-02-12 04:47:00,